createdAt,value
2018-05-16T09:03:14.961Z,4712
2018-05-16T09:03:47.462Z,4768
2018-05-16T09:04:19.537Z,4784
2018-05-16T09:04:51.640Z,4816
2018-05-16T09:05:25.387Z,4828
2018-05-16T09:05:57.533Z,4844
2018-05-16T09:07:48.993Z,5040
2018-05-16T09:08:21.073Z,5108
2018-05-16T09:08:53.164Z,5092
2018-05-16T09:09:25.390Z,4804
2018-05-16T09:09:57.483Z,4620
2018-05-16T09:10:29.720Z,4632
2018-05-16T09:11:01.761Z,4904
2018-05-16T09:11:33.903Z,4784
2018-05-16T09:12:05.979Z,4860
2018-05-16T09:12:38.055Z,4824
2018-05-16T09:13:11.914Z,4856
2018-05-16T09:13:43.986Z,4776
2018-05-16T09:14:16.088Z,4756
2018-05-16T09:14:48.258Z,4740
2018-05-16T09:15:20.350Z,4780
2018-05-16T09:15:52.348Z,4764
2018-05-16T09:16:24.382Z,4800
2018-05-16T09:16:56.468Z,5340
2018-05-16T09:17:28.579Z,4988
2018-05-16T09:18:00.674Z,4828
2018-05-16T09:18:32.766Z,4908
2018-05-16T09:19:04.867Z,5308
2018-05-16T09:19:37.006Z,4700
2018-05-16T09:20:09.051Z,4876
2018-05-16T09:22:00.501Z,4996
2018-05-16T09:22:32.605Z,4736
2018-05-16T09:23:04.693Z,4612
2018-05-16T09:23:36.795Z,4848
2018-05-16T09:24:08.862Z,4556
2018-05-16T09:24:40.939Z,4568
2018-05-16T09:25:13.122Z,4496
2018-05-16T09:27:04.667Z,4380
2018-05-16T09:27:36.779Z,4352
2018-05-16T09:28:08.878Z,4336
2018-05-16T09:28:40.967Z,4344
2018-05-16T09:29:13.061Z,4348
2018-05-16T09:29:45.160Z,4356
2018-05-16T09:30:17.242Z,4808
2018-05-16T09:30:49.337Z,4492
2018-05-16T09:31:21.426Z,4460
2018-05-16T09:31:53.521Z,5320
2018-05-16T09:32:25.618Z,4528
2018-05-16T09:32:57.697Z,4528
2018-05-16T09:33:29.802Z,5316
2018-05-16T09:34:01.910Z,5188
2018-05-16T09:34:33.990Z,5384
2018-05-16T09:36:25.522Z,5228
2018-05-16T09:36:57.600Z,4712
2018-05-16T09:37:29.696Z,4672
2018-05-16T09:38:01.776Z,4708
2018-05-16T09:38:33.860Z,4852
2018-05-16T09:40:25.602Z,5716
2018-05-16T09:40:57.613Z,4896
2018-05-16T09:41:29.732Z,5880
2018-05-16T09:42:01.821Z,5772
2018-05-16T09:42:33.908Z,4944
2018-05-16T09:43:06.013Z,4904
2018-05-16T09:43:38.144Z,5776
2018-05-16T09:44:10.250Z,5372
2018-05-16T09:44:42.326Z,5268
2018-05-16T09:45:14.401Z,5936
2018-05-16T09:45:46.607Z,6328
2018-05-16T09:46:18.597Z,6388
2018-05-16T09:46:50.652Z,6392
2018-05-16T09:47:22.758Z,6140
2018-05-16T09:47:54.848Z,5656
2018-05-16T09:48:26.946Z,6292
2018-05-16T09:50:18.365Z,6136
2018-05-16T09:50:50.467Z,6096
2018-05-16T09:51:22.603Z,5976
2018-05-16T09:51:54.608Z,5412
2018-05-16T09:52:26.699Z,5896
2018-05-16T09:52:58.774Z,5320
2018-05-16T09:53:30.839Z,5912
2018-05-16T09:54:02.930Z,5664
2018-05-16T09:54:35.008Z,5704
2018-05-16T09:55:07.117Z,5656
2018-05-16T09:55:39.235Z,5616
2018-05-16T09:56:11.566Z,5504
2018-05-16T09:56:43.678Z,5444
2018-05-16T09:57:16.133Z,5432
2018-05-16T09:57:48.292Z,5452
2018-05-16T09:59:39.963Z,5548
2018-05-16T10:00:12.017Z,5616
2018-05-16T10:02:03.797Z,5520
2018-05-16T10:02:35.888Z,5412
2018-05-16T10:03:07.984Z,5520
2018-05-16T10:03:40.062Z,5568
2018-05-16T10:04:12.157Z,5720
2018-05-16T10:06:03.785Z,5596
2018-05-16T10:07:55.386Z,4892
2018-05-16T10:08:27.479Z,4800
2018-05-16T10:08:59.604Z,5132
2018-05-16T10:09:31.692Z,5212
2018-05-16T10:10:03.793Z,5352
2018-05-16T10:10:35.891Z,5324
2018-05-16T10:11:07.964Z,5356
2018-05-16T10:11:40.073Z,5280
2018-05-16T10:12:12.168Z,5256
2018-05-16T10:12:44.273Z,5232
2018-05-16T10:13:16.434Z,5172
2018-05-16T10:13:48.525Z,5136
2018-05-16T10:15:40.328Z,5180
2018-05-16T10:17:31.806Z,5068
2018-05-16T10:18:03.888Z,5052
2018-05-16T10:19:55.436Z,4824
2018-05-16T10:20:27.492Z,4460
2018-05-16T10:20:59.569Z,4500
2018-05-16T10:21:31.666Z,4768
2018-05-16T10:22:03.766Z,4724
2018-05-16T10:22:35.863Z,4484
2018-05-16T10:23:07.971Z,4416
2018-05-16T10:23:40.083Z,4360
2018-05-16T10:24:12.134Z,4340
2018-05-16T10:24:44.271Z,4348
2018-05-16T10:25:16.374Z,4384
2018-05-16T10:27:07.881Z,4596
2018-05-16T10:27:39.997Z,5008
2018-05-16T10:28:12.095Z,5072
2018-05-16T10:28:44.209Z,4760
2018-05-16T10:29:16.311Z,5184
2018-05-16T10:29:48.416Z,5564
2018-05-16T10:31:40.060Z,5944
2018-05-16T10:32:12.201Z,6048
2018-05-16T10:32:44.278Z,6132
2018-05-16T10:33:16.521Z,6188
2018-05-16T10:33:48.456Z,6196
2018-05-16T10:34:20.590Z,6144
2018-05-16T10:34:52.687Z,6172
2018-05-16T10:35:24.780Z,6192
2018-05-16T10:35:56.874Z,6120
2018-05-16T10:36:28.944Z,5868
2018-05-16T10:37:00.969Z,6196
2018-05-16T10:37:33.097Z,6236
2018-05-16T10:38:05.205Z,6260
2018-05-16T10:38:37.310Z,6240
2018-05-16T10:39:09.395Z,6232
2018-05-16T10:39:41.508Z,6244
2018-05-16T10:40:13.598Z,6236
2018-05-16T10:40:45.691Z,6208
2018-05-16T10:41:17.777Z,6220
2018-05-16T10:41:49.888Z,6252
2018-05-16T10:42:21.980Z,6284
2018-05-16T10:42:54.092Z,6316
2018-05-16T10:46:05.490Z,6220
2018-05-16T10:46:37.607Z,6252
2018-05-16T10:47:09.706Z,6284
2018-05-16T10:47:41.777Z,6336
2018-05-16T10:48:13.919Z,6336
2018-05-16T10:48:46.028Z,6344
2018-05-16T10:50:37.709Z,6328
2018-05-16T10:52:29.068Z,6052
2018-05-16T10:53:01.205Z,6252
2018-05-16T10:53:33.297Z,6316
2018-05-16T10:54:05.402Z,6292
2018-05-16T10:54:37.502Z,6360
2018-05-16T10:55:09.596Z,6348
2018-05-16T10:55:41.676Z,6300
2018-05-16T10:56:13.771Z,6220
2018-05-16T10:56:45.876Z,6236
2018-05-16T10:57:18.034Z,6220
2018-05-16T10:57:50.044Z,6216
2018-05-16T10:59:41.489Z,6036
2018-05-16T11:00:13.579Z,6032
2018-05-16T11:00:45.699Z,6112
2018-05-16T11:01:17.804Z,6128
2018-05-16T11:01:49.903Z,6124
2018-05-16T11:02:22.010Z,6092
2018-05-16T11:02:54.077Z,6072
2018-05-16T11:03:26.436Z,6080
2018-05-16T11:03:58.402Z,6176
2018-05-16T11:04:30.472Z,6256
2018-05-16T11:05:02.638Z,6300
2018-05-16T11:05:34.727Z,6248
2018-05-16T11:07:26.569Z,6256
2018-05-16T11:09:18.344Z,6428
2018-05-16T11:09:50.550Z,6452
2018-05-16T11:10:22.696Z,6412
2018-05-16T11:10:54.860Z,6400
2018-05-16T11:11:26.964Z,6452
2018-05-16T11:11:59.061Z,6424
2018-05-16T11:12:31.162Z,6116
2018-05-16T11:13:03.275Z,5956
2018-05-16T11:14:54.924Z,5856
2018-05-16T11:15:27.026Z,5880
2018-05-16T11:15:59.097Z,5932
2018-05-16T11:16:31.180Z,6024
2018-05-16T11:17:03.276Z,6212
2018-05-16T11:17:35.350Z,6416
2018-05-16T11:18:07.459Z,6752
2018-05-16T11:18:39.549Z,7064
2018-05-16T11:19:11.639Z,6720
2018-05-16T11:19:43.747Z,6612
2018-05-16T11:20:15.839Z,7196
2018-05-16T11:20:48.017Z,6492
2018-05-16T11:21:20.166Z,6408
2018-05-16T11:21:52.184Z,6624
2018-05-16T11:23:43.793Z,6440
2018-05-16T11:24:15.837Z,6600
2018-05-16T11:24:47.902Z,6248
2018-05-16T11:25:19.997Z,6728
2018-05-16T11:25:52.093Z,6240
2018-05-16T11:26:24.171Z,6048
2018-05-16T11:26:56.274Z,6128
2018-05-16T11:27:28.358Z,6388
2018-05-16T11:28:00.428Z,6720
2018-05-16T11:28:32.640Z,6860
2018-05-16T11:29:04.608Z,6928
2018-05-16T11:29:36.726Z,7476
2018-05-16T11:30:08.819Z,6824
2018-05-16T11:30:40.918Z,6380
2018-05-16T11:31:12.978Z,6320
2018-05-16T11:31:45.112Z,6172
2018-05-16T11:32:17.225Z,6188
2018-05-16T11:32:49.313Z,6060
2018-05-16T11:33:21.414Z,6036
2018-05-16T11:33:53.490Z,5928
2018-05-16T11:35:44.944Z,5660
2018-05-16T11:36:17.041Z,5544
2018-05-16T11:36:49.118Z,5404
2018-05-16T11:37:21.211Z,5272
2018-05-16T11:39:12.526Z,5020
2018-05-16T11:41:04.286Z,5492
2018-05-16T11:41:36.361Z,5404
2018-05-16T11:42:08.459Z,5512
2018-05-16T11:42:40.563Z,5724
2018-05-16T11:44:31.951Z,6604
2018-05-16T11:45:04.029Z,6752
2018-05-16T11:45:36.163Z,6688
2018-05-16T11:46:08.259Z,6476
2018-05-16T11:46:40.368Z,6456
2018-05-16T11:47:12.472Z,6428
2018-05-16T11:47:44.583Z,6432
2018-05-16T11:48:16.867Z,6708
2018-05-16T11:50:08.527Z,7212
2018-05-16T11:50:40.636Z,7248
2018-05-16T11:51:12.738Z,6844
2018-05-16T11:51:44.831Z,6280
2018-05-16T11:52:16.912Z,7100
2018-05-16T11:52:49.019Z,6532
2018-05-16T11:53:21.097Z,6604
2018-05-16T11:53:53.191Z,5848
2018-05-16T11:54:25.281Z,6404
2018-05-16T11:54:57.341Z,5996
2018-05-16T11:55:29.434Z,5868
2018-05-16T11:56:01.534Z,5988
2018-05-16T11:56:33.636Z,6536
2018-05-16T11:57:05.730Z,6104
2018-05-16T11:57:37.834Z,6012
2018-05-16T11:59:29.322Z,5812
2018-05-16T12:00:01.403Z,5644
2018-05-16T12:00:33.507Z,4984
2018-05-16T12:01:05.585Z,4636
2018-05-16T12:01:37.711Z,4432
2018-05-16T12:02:09.818Z,4236
2018-05-16T12:04:01.464Z,4024
2018-05-16T12:04:33.561Z,3992
2018-05-16T12:05:05.661Z,4232
2018-05-16T12:05:37.762Z,4232
2018-05-16T12:06:09.848Z,4136
2018-05-16T12:06:41.938Z,4232
2018-05-16T12:07:14.032Z,4288
2018-05-16T12:07:46.143Z,4364
2018-05-16T12:08:18.223Z,4432
2018-05-16T12:08:50.308Z,4468
2018-05-16T12:09:22.382Z,4496
2018-05-16T12:09:54.483Z,4540
2018-05-16T12:10:26.584Z,4600
2018-05-16T12:12:17.888Z,5768
2018-05-16T12:12:49.995Z,5912
2018-05-16T12:14:41.755Z,5148
2018-05-16T12:15:13.748Z,5288
2018-05-16T12:15:45.827Z,5232
2018-05-16T12:16:17.919Z,5388
2018-05-16T12:16:50.324Z,5592
2018-05-16T12:17:22.399Z,5572
2018-05-16T12:19:13.910Z,5332
2018-05-16T12:19:45.996Z,5476
2018-05-16T12:20:18.099Z,5460
2018-05-16T12:20:51.430Z,5432
2018-05-16T12:21:25.829Z,5344
2018-05-16T12:21:57.925Z,5352
2018-05-16T12:23:49.771Z,5528
2018-05-16T12:24:21.950Z,5548
2018-05-16T12:26:14.418Z,5880
2018-05-16T12:26:47.300Z,9436
2018-05-16T12:27:19.527Z,9576
2018-05-16T12:27:51.653Z,7448
2018-05-16T12:28:23.748Z,8460
2018-05-16T12:28:55.855Z,10448
2018-05-16T12:29:27.931Z,10764
2018-05-16T12:30:00.056Z,10960
2018-05-16T12:30:32.195Z,8280
2018-05-16T12:31:04.265Z,7800
2018-05-16T12:31:36.359Z,7388
2018-05-16T12:32:08.464Z,7560
2018-05-16T12:32:40.537Z,11340
2018-05-16T12:33:12.711Z,12284
2018-05-16T12:33:44.950Z,12592
2018-05-16T12:34:17.008Z,12956
2018-05-16T12:36:08.652Z,7832
2018-05-16T12:39:19.773Z,6336
2018-05-16T12:39:51.868Z,6356
2018-05-16T12:40:23.951Z,6356
2018-05-16T12:40:56.031Z,6352
2018-05-16T12:42:47.494Z,6384
2018-05-16T12:43:19.583Z,7116
2018-05-16T12:43:51.658Z,11908
2018-05-16T12:45:43.410Z,13232
2018-05-16T12:46:15.563Z,13164
2018-05-16T12:46:47.649Z,12712
2018-05-16T12:47:19.823Z,12876
2018-05-16T12:47:51.979Z,13460
2018-05-16T12:48:24.060Z,14312
2018-05-16T12:50:15.857Z,13760
2018-05-16T12:50:47.945Z,13892
2018-05-16T12:51:20.137Z,14268
2018-05-16T12:51:52.225Z,14960
2018-05-16T12:53:43.942Z,13092
2018-05-16T12:55:35.517Z,8792
2018-05-16T12:56:07.612Z,6696
2018-05-16T12:56:39.704Z,6160
2018-05-16T12:57:11.767Z,5856
2018-05-16T12:57:43.844Z,6116
2018-05-16T12:58:15.943Z,6392
2018-05-16T12:58:48.033Z,6364
2018-05-16T12:59:20.147Z,7124
2018-05-16T12:59:52.221Z,15420
2018-05-16T13:00:24.317Z,13196
2018-05-16T13:02:16.100Z,16500
2018-05-16T13:02:48.189Z,16368
2018-05-16T13:03:20.284Z,16676
2018-05-16T13:05:11.681Z,9516
2018-05-16T13:05:43.759Z,12428
2018-05-16T13:07:35.456Z,16176
2018-05-16T13:08:07.545Z,16116
2018-05-16T13:09:59.955Z,13744
2018-05-16T13:10:32.051Z,16664
2018-05-16T13:12:23.517Z,18272
2018-05-16T13:14:14.954Z,19360
2018-05-16T13:14:47.031Z,18176
2018-05-16T13:15:19.138Z,11484
2018-05-16T13:15:51.257Z,7412
2018-05-16T13:17:42.632Z,17080
2018-05-16T13:18:14.697Z,13768
2018-05-16T13:18:46.809Z,15040
2018-05-16T13:20:38.603Z,20160
2018-05-16T13:21:10.704Z,18976
2018-05-16T13:21:42.866Z,19136
2018-05-16T13:22:14.907Z,13368
2018-05-16T13:22:46.999Z,8968
2018-05-16T13:24:38.452Z,20128
2018-05-16T13:25:10.558Z,19584
2018-05-16T13:25:42.646Z,22432
2018-05-16T13:27:34.040Z,7996
2018-05-16T13:29:25.647Z,5024
2018-05-16T13:43:23.958Z,612
2018-05-16T13:43:56.041Z,612
2018-05-16T13:44:28.143Z,616
2018-05-16T13:45:00.242Z,624
2018-05-16T13:45:32.338Z,624
2018-05-16T13:46:04.447Z,632
2018-05-16T13:46:36.533Z,636
2018-05-16T13:47:08.634Z,636
2018-05-16T13:47:40.729Z,636
2018-05-16T13:48:12.839Z,636
2018-05-16T13:50:04.636Z,600
2018-05-16T13:51:56.394Z,460
2018-05-16T13:52:28.487Z,436
2018-05-16T13:53:00.589Z,428
2018-05-16T13:53:32.703Z,436
2018-05-16T13:54:04.752Z,460
2018-05-16T13:54:36.846Z,480
2018-05-16T13:55:08.936Z,500
2018-05-16T13:55:41.047Z,524
2018-05-16T13:56:13.147Z,568
2018-05-16T13:56:45.234Z,616
2018-05-16T13:58:36.897Z,800
2018-05-16T13:59:08.994Z,852
2018-05-16T13:59:41.092Z,880
2018-05-16T14:00:13.253Z,888
2018-05-16T14:00:45.303Z,908
2018-05-16T14:01:17.406Z,924
2018-05-16T14:01:49.513Z,936
2018-05-16T14:03:41.072Z,1044
2018-05-16T14:04:13.165Z,1096
2018-05-16T14:04:45.245Z,1172
2018-05-16T14:05:17.323Z,1240
2018-05-16T14:08:28.550Z,1804
2018-05-16T14:09:00.647Z,1996
2018-05-16T14:09:32.754Z,2052
2018-05-16T14:10:04.840Z,1984
2018-05-16T14:10:36.934Z,1884
2018-05-16T14:12:28.736Z,1612
2018-05-16T14:13:00.819Z,1632
2018-05-16T14:13:32.884Z,1544
2018-05-16T14:15:24.262Z,1364
2018-05-16T14:15:56.598Z,1408
2018-05-16T14:16:28.697Z,1460
2018-05-16T14:17:00.785Z,1492
2018-05-16T14:17:32.882Z,1504
2018-05-16T14:18:04.976Z,1520
2018-05-16T14:18:37.046Z,1600
2018-05-16T14:19:09.139Z,1756
2018-05-16T14:21:00.500Z,3636
2018-05-16T14:21:32.635Z,15976
2018-05-16T14:22:04.684Z,14296
2018-05-16T14:22:36.797Z,7104
2018-05-16T14:23:08.909Z,8540
2018-05-16T14:23:40.994Z,7248
2018-05-16T14:24:13.085Z,5400
2018-05-16T14:24:45.170Z,4928
2018-05-16T14:25:17.264Z,4288
2018-05-16T14:25:49.356Z,5372
2018-05-16T14:26:21.466Z,3368
2018-05-16T14:26:53.563Z,2656
2018-05-16T14:27:25.641Z,2332
2018-05-16T14:29:17.084Z,1820
2018-05-16T14:29:49.176Z,1720
2018-05-16T14:30:21.288Z,1636
2018-05-16T14:30:53.372Z,1576
2018-05-16T14:31:25.468Z,1548
2018-05-16T14:31:57.551Z,1552
2018-05-16T14:32:29.655Z,1592
2018-05-16T14:33:01.725Z,1696
2018-05-16T14:33:33.824Z,1872
2018-05-16T14:34:05.919Z,2092
2018-05-16T14:34:38.014Z,2260
2018-05-16T14:35:10.112Z,2360
2018-05-16T14:35:42.205Z,2516
2018-05-16T14:36:14.324Z,2628
2018-05-16T14:36:46.377Z,2688
2018-05-16T14:37:18.478Z,9292
2018-05-16T14:37:50.588Z,4340
2018-05-16T14:39:42.172Z,4080
2018-05-16T14:40:14.276Z,4052
2018-05-16T14:40:46.378Z,8856
2018-05-16T14:41:18.473Z,7180
2018-05-16T14:41:50.615Z,11228
2018-05-16T14:42:22.715Z,11764
2018-05-16T14:44:14.425Z,2932
2018-05-16T14:46:06.018Z,2364
2018-05-16T14:47:57.766Z,19872
2018-05-16T14:48:29.991Z,46464
2018-05-16T14:50:21.601Z,46656
2018-05-16T14:50:53.708Z,48160
2018-05-16T14:52:45.177Z,8176
2018-05-16T14:53:17.278Z,8908
2018-05-16T14:53:49.369Z,7696
2018-05-16T14:54:21.441Z,5720
2018-05-16T14:54:53.547Z,4948
2018-05-16T14:55:25.681Z,4688
2018-05-16T14:55:57.756Z,4716
2018-05-16T14:56:29.849Z,5428
2018-05-16T14:57:01.939Z,5304
2018-05-16T14:57:34.038Z,5888
2018-05-16T14:58:06.132Z,5908
2018-05-16T14:59:57.680Z,4404
2018-05-16T15:00:29.795Z,3968
2018-05-16T15:01:01.905Z,3656
2018-05-16T15:01:33.994Z,3368
2018-05-16T15:02:06.109Z,3240
2018-05-16T15:02:38.200Z,3212
2018-05-16T15:03:10.256Z,3176
2018-05-16T15:03:42.363Z,3132
2018-05-16T15:05:34.023Z,2980
2018-05-16T15:06:06.110Z,2968
2018-05-16T15:06:38.213Z,3028
2018-05-16T15:08:29.540Z,3648
2018-05-16T15:09:01.638Z,5244
2018-05-16T15:09:33.722Z,10464
2018-05-16T15:10:05.809Z,23552
2018-05-16T15:10:37.920Z,31264
2018-05-16T15:12:29.446Z,29056
2018-05-16T15:13:01.542Z,28608
2018-05-16T15:13:33.614Z,34176
2018-05-16T15:14:05.690Z,33952
2018-05-16T15:15:57.467Z,37632
2018-05-16T15:16:29.558Z,20512
2018-05-16T15:17:01.648Z,18272
2018-05-16T15:17:33.749Z,34112
2018-05-16T15:19:25.209Z,9904
2018-05-16T15:19:57.307Z,6916
2018-05-16T15:20:29.396Z,5748
2018-05-16T15:21:01.493Z,4780
2018-05-16T15:21:33.586Z,3980
2018-05-16T15:22:05.690Z,3428
2018-05-16T15:22:37.793Z,2972
2018-05-16T15:23:09.889Z,2916
2018-05-16T15:23:42.009Z,3524
2018-05-16T15:24:14.096Z,7540
2018-05-16T15:24:46.154Z,2716
2018-05-16T15:25:18.255Z,2160
2018-05-16T15:25:50.354Z,1828
2018-05-16T15:26:22.454Z,1580
2018-05-16T15:26:54.545Z,1408
2018-05-16T15:27:26.693Z,1284
2018-05-16T15:27:58.741Z,1192
2018-05-16T15:28:30.846Z,1108
2018-05-16T15:29:02.928Z,1040
2018-05-16T15:29:34.992Z,976
2018-05-16T15:30:07.076Z,932
2018-05-16T15:30:39.282Z,900
2018-05-16T15:31:11.313Z,876
2018-05-16T15:31:43.419Z,884
2018-05-16T15:32:15.532Z,896
2018-05-16T15:32:47.641Z,900
2018-05-16T15:33:19.730Z,884
2018-05-16T15:36:30.795Z,784
2018-05-16T15:37:02.884Z,796
2018-05-16T15:37:34.960Z,812
2018-05-16T15:38:07.062Z,840
2018-05-16T15:39:58.480Z,1116
2018-05-16T15:40:30.559Z,1176
2018-05-16T15:41:02.646Z,1232
2018-05-16T15:41:34.759Z,1288
2018-05-16T15:42:06.861Z,1356
2018-05-16T15:42:38.961Z,1400
2018-05-16T15:44:30.579Z,1408
2018-05-16T15:45:02.663Z,1420
2018-05-16T15:45:34.732Z,1412
2018-05-16T15:46:06.890Z,1412
2018-05-16T15:46:38.962Z,1412
2018-05-16T15:47:11.010Z,1404
2018-05-16T15:47:43.115Z,1372
2018-05-16T15:49:34.652Z,1260
2018-05-16T15:50:06.733Z,1248
2018-05-16T15:50:38.833Z,1240
2018-05-16T15:52:30.160Z,1252
2018-05-16T15:53:02.263Z,1244
2018-05-16T15:53:34.362Z,1208
2018-05-16T15:55:26.076Z,1032
2018-05-16T15:55:58.199Z,956
2018-05-16T15:56:30.307Z,888
2018-05-16T15:57:02.369Z,824
2018-05-16T15:57:34.482Z,780
2018-05-16T15:58:06.561Z,752
2018-05-16T15:58:38.659Z,732
2018-05-16T15:59:10.779Z,704
2018-05-16T15:59:42.890Z,672
2018-05-16T16:00:14.974Z,640
2018-05-16T16:00:47.049Z,608
2018-05-16T16:01:19.141Z,576
2018-05-16T16:01:51.250Z,536
2018-05-16T16:02:23.309Z,500
2018-05-16T16:04:14.734Z,364
2018-05-16T16:06:06.122Z,300
2018-05-16T16:06:38.231Z,292
2018-05-16T16:07:10.345Z,284
2018-05-16T16:07:42.464Z,300
2018-05-16T16:08:14.652Z,328
2018-05-16T16:08:46.655Z,364
2018-05-16T16:09:18.759Z,400
2018-05-16T16:09:50.856Z,428
2018-05-16T16:10:22.946Z,436
2018-05-16T16:10:55.045Z,436
2018-05-16T16:11:27.133Z,420
2018-05-16T16:11:59.212Z,400
2018-05-16T16:12:31.302Z,380
2018-05-16T16:13:03.394Z,364
2018-05-16T16:13:35.492Z,352
2018-05-16T16:14:07.592Z,352
2018-05-16T16:14:39.669Z,352
2018-05-16T16:16:31.320Z,412
2018-05-16T16:18:23.105Z,456
2018-05-16T16:18:55.206Z,480
2018-05-16T16:19:27.317Z,508
2018-05-16T16:19:59.388Z,556
2018-05-16T16:20:31.482Z,604
2018-05-16T16:21:03.583Z,652
2018-05-16T16:21:35.654Z,704
2018-05-16T16:22:07.769Z,752
2018-05-16T16:22:39.864Z,808
2018-05-16T16:23:11.966Z,868
2018-05-16T16:23:44.051Z,928
2018-05-16T16:24:16.150Z,984
2018-05-16T16:26:07.607Z,1132
2018-05-16T16:26:39.667Z,1180
2018-05-16T16:29:50.843Z,1312
2018-05-16T16:30:22.894Z,1352
2018-05-16T16:30:55.000Z,1404
2018-05-16T16:31:27.128Z,1508
2018-05-16T16:31:59.183Z,1684
2018-05-16T16:32:31.278Z,1796
2018-05-16T16:33:03.383Z,1924
2018-05-16T16:33:35.448Z,2044
2018-05-16T16:34:07.508Z,2152
2018-05-16T16:34:39.604Z,2308
2018-05-16T16:36:31.010Z,2812
2018-05-16T16:37:03.101Z,2880
2018-05-16T16:37:35.201Z,2936
2018-05-16T16:38:07.309Z,2900
2018-05-16T16:38:39.403Z,2840
2018-05-16T16:39:11.578Z,2876
2018-05-16T16:39:43.598Z,2952
2018-05-16T16:40:15.684Z,2996
2018-05-16T16:40:47.783Z,3012
2018-05-16T16:41:19.888Z,3088
2018-05-16T16:41:51.983Z,3084
2018-05-16T16:42:24.091Z,3060
2018-05-16T16:42:56.157Z,3056
2018-05-16T16:43:28.246Z,3056
2018-05-16T16:44:00.360Z,3052
2018-05-16T16:44:32.455Z,3024
2018-05-16T16:45:04.548Z,3020
2018-05-16T16:45:36.638Z,3068
2018-05-16T16:46:08.706Z,3136
2018-05-16T16:46:40.779Z,3220
2018-05-16T16:48:32.551Z,3280
2018-05-16T16:49:04.648Z,3256
2018-05-16T16:49:36.749Z,3236
2018-05-16T16:50:08.889Z,3220
2018-05-16T16:50:40.948Z,3196
2018-05-16T16:51:13.050Z,3168
2018-05-16T16:51:45.144Z,3108
2018-05-16T16:52:17.225Z,3080
2018-05-16T16:55:28.267Z,3020
2018-05-16T16:56:00.361Z,3012
2018-05-16T16:56:32.452Z,3000
2018-05-16T16:58:24.116Z,2984
2018-05-16T16:58:56.217Z,2952
2018-05-16T16:59:28.318Z,2908
2018-05-16T17:00:00.503Z,2880
2018-05-16T17:00:32.529Z,2868
2018-05-16T17:01:04.610Z,2864
2018-05-16T17:01:36.724Z,2864
2018-05-16T17:02:08.821Z,2872
2018-05-16T17:04:00.277Z,2848
2018-05-16T17:04:32.406Z,2832
2018-05-16T17:05:04.492Z,2816
2018-05-16T17:06:55.861Z,2712
2018-05-16T17:07:27.968Z,2676
2018-05-16T17:08:00.061Z,2668
2018-05-16T17:08:32.152Z,2640
2018-05-16T17:09:04.259Z,2624
2018-05-16T17:09:36.343Z,2612
2018-05-16T17:10:08.427Z,2608
2018-05-16T17:10:40.512Z,2604
2018-05-16T17:11:12.579Z,2596
2018-05-16T17:13:04.279Z,2472
2018-05-16T17:13:36.355Z,2464
2018-05-16T17:14:08.518Z,2456
2018-05-16T17:16:00.118Z,2340
2018-05-16T17:16:32.228Z,2324
2018-05-16T17:17:04.316Z,2296
2018-05-16T17:17:36.411Z,2260
2018-05-16T17:18:08.498Z,2248
2018-05-16T17:18:40.584Z,2220
2018-05-16T17:19:12.681Z,2184
2018-05-16T17:19:44.785Z,2148
2018-05-16T17:20:17.023Z,2132
2018-05-16T17:22:08.787Z,1976
2018-05-16T17:22:40.905Z,1940
2018-05-16T17:23:13.013Z,1964
2018-05-16T17:23:45.103Z,2004
2018-05-16T17:24:17.211Z,2040
2018-05-16T17:24:49.299Z,2064
2018-05-16T17:25:21.397Z,2084
2018-05-16T17:25:53.464Z,2092
2018-05-16T17:26:25.544Z,2124
2018-05-16T17:28:17.286Z,2196
2018-05-16T17:28:49.373Z,2188
2018-05-16T17:29:21.475Z,2176
2018-05-16T17:29:53.584Z,2184
2018-05-16T17:30:25.717Z,2192
2018-05-16T17:30:57.752Z,2200
2018-05-16T17:32:49.157Z,2236
2018-05-16T17:33:21.245Z,2300
2018-05-16T17:33:53.346Z,2352
2018-05-16T17:34:25.485Z,2404
2018-05-16T17:34:57.552Z,2464
2018-05-16T17:35:29.654Z,2504
2018-05-16T17:36:01.754Z,2500
2018-05-16T17:37:53.296Z,2488
2018-05-16T17:38:25.345Z,2452
2018-05-16T17:38:57.438Z,2420
2018-05-16T17:40:49.052Z,2428
2018-05-16T17:41:21.142Z,2460
2018-05-16T17:41:53.224Z,2464
2018-05-16T17:42:25.331Z,2444
2018-05-16T17:42:57.431Z,2392
2018-05-16T17:43:29.533Z,2340
2018-05-16T17:44:01.631Z,2276
2018-05-16T17:45:53.391Z,2088
2018-05-16T17:46:25.487Z,2044
2018-05-16T17:46:57.587Z,2016
2018-05-16T17:47:33.628Z,2004
2018-05-16T17:48:05.716Z,2020
2018-05-16T17:48:37.823Z,2064
2018-05-16T17:49:09.917Z,2108
2018-05-16T17:49:42.016Z,2116
2018-05-16T17:50:14.116Z,2108
2018-05-16T17:50:46.175Z,2108
2018-05-16T17:51:18.285Z,2116
2018-05-16T17:51:50.388Z,2104
2018-05-16T17:52:22.458Z,2084
2018-05-16T17:52:54.537Z,2052
2018-05-16T17:53:26.618Z,2040
2018-05-16T17:53:58.720Z,2032
2018-05-16T17:54:30.812Z,2024
2018-05-16T17:55:02.956Z,1992
2018-05-16T17:55:35.063Z,1972
2018-05-16T17:56:07.152Z,1960
2018-05-16T17:56:39.237Z,1956
2018-05-16T17:57:11.341Z,1940
2018-05-16T17:57:43.456Z,1916
2018-05-16T17:58:15.538Z,1884
2018-05-16T17:58:47.617Z,1868
2018-05-16T17:59:19.717Z,1852
2018-05-16T17:59:51.807Z,1840
2018-05-16T18:00:23.907Z,1836
2018-05-16T18:02:15.316Z,1780
2018-05-16T18:02:47.393Z,1744
2018-05-16T18:03:19.500Z,1708
2018-05-16T18:03:51.606Z,1672
2018-05-16T18:04:23.704Z,1652
2018-05-16T18:04:55.805Z,1608
2018-05-16T18:05:27.918Z,1584
2018-05-16T18:06:00.007Z,1560
2018-05-16T18:07:51.730Z,1492
2018-05-16T18:08:23.778Z,1472
2018-05-16T18:08:55.874Z,1452
2018-05-16T18:09:27.961Z,1444
2018-05-16T18:10:00.067Z,1432
2018-05-16T18:10:32.149Z,1428
2018-05-16T18:11:04.239Z,1420
2018-05-16T18:11:36.337Z,1420
2018-05-16T18:12:08.429Z,1416
2018-05-16T18:12:40.501Z,1412
2018-05-16T18:13:12.576Z,1408
2018-05-16T18:13:44.680Z,1404
2018-05-16T18:14:16.782Z,1396
2018-05-16T18:14:48.858Z,1388
2018-05-16T18:15:20.948Z,1372
2018-05-16T18:15:53.056Z,1356
2018-05-16T18:16:25.155Z,1336
2018-05-16T18:16:57.327Z,1316
2018-05-16T18:18:48.912Z,1260
2018-05-16T18:19:20.994Z,1240
2018-05-16T18:19:53.055Z,1224
2018-05-16T18:20:25.127Z,1204
2018-05-16T18:22:16.829Z,1152
2018-05-16T18:22:48.921Z,1132
2018-05-16T18:23:21.034Z,1112
2018-05-16T18:23:53.127Z,1096
2018-05-16T18:24:25.223Z,1080
2018-05-16T18:24:57.324Z,1064
2018-05-16T18:25:29.418Z,1048
2018-05-16T18:27:21.187Z,964
2018-05-16T18:27:53.266Z,940
2018-05-16T18:28:25.369Z,908
2018-05-16T18:28:57.443Z,880
2018-05-16T18:29:31.019Z,852
2018-05-16T18:30:03.743Z,820
2018-05-16T18:31:55.269Z,724
2018-05-16T18:32:27.376Z,696
2018-05-16T18:32:59.471Z,668
2018-05-16T18:33:31.556Z,644
2018-05-16T18:34:03.642Z,624
2018-05-16T18:34:35.726Z,608
2018-05-16T18:35:07.813Z,588
2018-05-16T18:35:39.870Z,572
2018-05-16T18:36:11.952Z,560
2018-05-16T18:36:44.044Z,552
2018-05-16T18:37:16.139Z,540
2018-05-16T18:37:48.238Z,532
2018-05-16T18:38:20.480Z,524
2018-05-16T18:40:11.839Z,496
2018-05-16T18:40:43.933Z,484
2018-05-16T18:41:16.031Z,468
2018-05-16T18:41:48.131Z,456
2018-05-16T18:42:20.261Z,440
2018-05-16T18:44:11.592Z,388
2018-05-16T18:44:43.672Z,372
2018-05-16T18:45:15.759Z,356
2018-05-16T18:47:07.189Z,316
2018-05-16T18:47:39.282Z,316
2018-05-16T18:48:11.376Z,308
2018-05-16T18:48:43.469Z,304
2018-05-16T18:49:15.642Z,292
2018-05-16T18:49:47.683Z,284
2018-05-16T18:50:19.789Z,272
2018-05-16T18:50:51.874Z,268
2018-05-16T18:51:23.951Z,260
2018-05-16T18:51:56.017Z,252
2018-05-16T18:52:28.103Z,248
2018-05-16T18:53:00.200Z,240
2018-05-16T18:53:32.280Z,232
2018-05-16T18:54:04.372Z,228
2018-05-16T18:54:36.458Z,220
2018-05-16T18:55:08.573Z,208
2018-05-16T18:57:00.278Z,172
2018-05-16T18:58:51.694Z,140
2018-05-16T18:59:23.787Z,132
2018-05-16T18:59:55.882Z,120